Time;durP1;ratioP1;P1;durP2;ratioP2;P2;SDS_P1;SDS_P2;PMS_P1;PMS_P2;Temp;Humidity;BMP_temperature;BMP_pressure;BME280_temperature;BME280_humidity;BME280_pressure;Samples;Min_cycle;Max_cycle;Signal;HPM_P1;HPM_P2
2022/09/16 00:01:11;;;;;;;;;6.00;4.00;;;;;;;;4920812;28;45500;-67
2022/09/16 00:03:37;;;;;;;;;5.25;4.00;;;;;;;;4920361;28;45579;-66
2022/09/16 00:06:02;;;;;;;;;5.00;4.00;;;;;;;;4920347;28;45385;-66
2022/09/16 00:08:27;;;;;;;;;7.00;4.33;;;;;;;;4920523;28;45288;-66
2022/09/16 00:10:52;;;;;;;;;6.67;5.33;;;;;;;;4920672;28;45444;-67
2022/09/16 00:13:18;;;;;;;;;3.00;2.00;;;;;;;;4920258;28;46488;-66
2022/09/16 00:15:45;;;;;;;;;6.50;3.50;;;;;;;;4920295;28;45381;-66
2022/09/16 00:18:11;;;;;;;;;6.67;4.00;;;;;;;;4920354;28;45413;-66
2022/09/16 00:20:36;;;;;;;;;4.00;4.00;;;;;;;;4920391;28;45226;-67
2022/09/16 00:23:01;;;;;;;;;4.50;4.50;;;;;;;;4919962;28;46410;-66
2022/09/16 00:25:27;;;;;;;;;4.50;4.50;;;;;;;;4920264;28;45359;-66
2022/09/16 00:27:52;;;;;;;;;4.25;4.25;;;;;;;;4920222;28;45724;-67
2022/09/16 00:30:18;;;;;;;;;6.75;4.00;;;;;;;;4920300;28;45440;-67
2022/09/16 00:32:43;;;;;;;;;4.50;3.50;;;;;;;;4919649;28;45473;-67
2022/09/16 00:35:08;;;;;;;;;3.50;3.50;;;;;;;;4919708;28;45489;-67
2022/09/16 00:37:34;;;;;;;;;3.00;3.00;;;;;;;;4920135;28;45293;-67
2022/09/16 00:40:00;;;;;;;;;3.00;3.00;;;;;;;;4920134;28;45453;-67
2022/09/16 00:42:25;;;;;;;;;2.00;2.00;;;;;;;;4919845;28;46289;-67
2022/09/16 00:45:03;;;;;;;;;3.25;3.00;;;;;;;;4919875;28;45376;-67
2022/09/16 00:47:44;;;;;;;;;7.33;6.33;;;;;;;;4919998;28;45423;-67
2022/09/16 00:50:10;;;;;;;;;6.67;5.33;;;;;;;;4919980;28;45458;-69
2022/09/16 00:52:38;;;;;;;;;2.50;2.00;;;;;;;;4919836;28;45775;-69
2022/09/16 00:55:06;;;;;;;;;4.25;2.00;;;;;;;;4902440;28;45366;-67
2022/09/16 00:57:31;;;;;;;;;3.00;3.00;;;;;;;;4919737;28;45357;-67
2022/09/16 00:59:58;;;;;;;;;4.67;3.67;;;;;;;;4919871;28;45458;-66
2022/09/16 01:02:24;;;;;;;;;5.75;2.75;;;;;;;;4919524;28;45501;-66
2022/09/16 01:05:01;;;;;;;;;5.33;5.00;;;;;;;;4919577;28;45548;-66
2022/09/16 01:07:30;;;;;;;;;5.75;2.00;;;;;;;;4919757;28;45389;-66
2022/09/16 01:09:55;;;;;;;;;4.50;3.00;;;;;;;;4919590;28;45548;-67
2022/09/16 01:12:21;;;;;;;;;3.00;3.00;;;;;;;;4919348;28;45941;-67
2022/09/16 01:14:52;;;;;;;;;4.00;2.00;;;;;;;;4919476;28;45380;-67
2022/09/16 01:17:21;;;;;;;;;5.75;4.75;;;;;;;;4919315;28;45518;-67
2022/09/16 01:20:05;;;;;;;;;3.00;3.00;;;;;;;;4919550;28;45531;-66
2022/09/16 01:22:36;;;;;;;;;3.25;2.00;;;;;;;;4901943;28;46537;-67
2022/09/16 01:25:02;;;;;;;;;2.75;2.00;;;;;;;;4919435;28;45379;-67
2022/09/16 01:27:43;;;;;;;;;2.75;2.75;;;;;;;;4902191;28;45471;-66
2022/09/16 01:30:17;;;;;;;;;2.75;2.00;;;;;;;;4919542;28;45368;-69
2022/09/16 01:33:03;;;;;;;;;2.00;2.00;;;;;;;;4919336;28;45363;-67
2022/09/16 01:35:29;;;;;;;;;2.00;2.00;;;;;;;;4919361;28;45389;-67
2022/09/16 01:37:57;;;;;;;;;2.00;2.00;;;;;;;;4920099;28;45393;-66
2022/09/16 01:40:41;;;;;;;;;4.00;2.00;;;;;;;;4920069;28;45326;-66
2022/09/16 01:43:24;;;;;;;;;2.75;2.25;;;;;;;;4919153;28;45429;-66
2022/09/16 01:45:53;;;;;;;;;3.75;2.50;;;;;;;;4919795;28;45413;-66
2022/09/16 01:48:18;;;;;;;;;5.75;3.00;;;;;;;;4919969;28;45333;-66
2022/09/16 01:50:51;;;;;;;;;3.00;2.00;;;;;;;;4920068;28;45417;-67
2022/09/16 01:53:21;;;;;;;;;5.00;4.67;;;;;;;;4919823;28;45693;-68
2022/09/16 01:55:52;;;;;;;;;7.33;7.33;;;;;;;;4919350;28;45408;-68
2022/09/16 01:58:22;;;;;;;;;7.33;5.67;;;;;;;;4919813;28;45302;-68
2022/09/16 02:00:50;;;;;;;;;9.67;9.67;;;;;;;;4920016;28;45365;-68
2022/09/16 02:03:21;;;;;;;;;11.33;10.33;;;;;;;;4919449;28;45412;-68
2022/09/16 02:05:55;;;;;;;;;10.33;7.67;;;;;;;;4919403;28;45751;-68
2022/09/16 02:08:24;;;;;;;;;9.67;9.33;;;;;;;;4919517;28;45448;-68
2022/09/16 02:10:52;;;;;;;;;12.00;9.00;;;;;;;;4919859;28;45350;-68
2022/09/16 02:13:24;;;;;;;;;10.33;8.00;;;;;;;;4919325;28;45751;-68
2022/09/16 02:15:52;;;;;;;;;7.00;7.00;;;;;;;;4919137;28;45414;-68
2022/09/16 02:18:21;;;;;;;;;6.33;5.00;;;;;;;;4919619;28;45447;-68
2022/09/16 02:20:46;;;;;;;;;7.00;5.00;;;;;;;;4919373;28;45441;-68
2022/09/16 02:23:14;;;;;;;;;7.33;5.00;;;;;;;;4919378;28;45484;-68
2022/09/16 02:25:41;;;;;;;;;5.00;2.75;;;;;;;;4919368;28;45365;-68
2022/09/16 02:28:11;;;;;;;;;1.75;1.50;;;;;;;;4919521;28;45306;-68
2022/09/16 02:30:38;;;;;;;;;3.00;3.00;;;;;;;;4919712;28;45349;-69
2022/09/16 02:33:06;;;;;;;;;2.00;2.00;;;;;;;;4919230;28;46566;-68
2022/09/16 02:35:35;;;;;;;;;2.75;2.75;;;;;;;;4919036;28;45243;-68
2022/09/16 02:38:03;;;;;;;;;4.00;2.75;;;;;;;;4919533;28;45239;-68
2022/09/16 02:40:33;;;;;;;;;4.75;3.75;;;;;;;;4919577;28;45329;-68
2022/09/16 02:42:59;;;;;;;;;1.00;1.00;;;;;;;;4918959;28;45843;-68
2022/09/16 02:45:43;;;;;;;;;1.75;1.75;;;;;;;;4919178;28;45321;-68
2022/09/16 02:48:34;;;;;;;;;3.75;2.75;;;;;;;;4919323;28;45286;-68
2022/09/16 02:51:03;;;;;;;;;2.00;1.75;;;;;;;;4915279;28;45591;-68
2022/09/16 02:53:39;;;;;;;;;2.50;1.75;;;;;;;;4901805;28;46513;-68
2022/09/16 02:56:22;;;;;;;;;1.75;1.75;;;;;;;;4921338;28;45286;-69
2022/09/16 02:58:48;;;;;;;;;3.75;2.25;;;;;;;;4922415;28;45270;-68
2022/09/16 03:01:13;;;;;;;;;3.00;1.00;;;;;;;;4922449;28;45463;-68
2022/09/16 03:03:39;;;;;;;;;1.50;0.75;;;;;;;;4922037;28;46031;-68
2022/09/16 03:06:07;;;;;;;;;1.75;1.75;;;;;;;;4922023;28;45347;-69
2022/09/16 03:08:33;;;;;;;;;1.25;1.25;;;;;;;;4921990;28;45449;-68
2022/09/16 03:11:02;;;;;;;;;1.75;1.75;;;;;;;;4922419;28;45301;-68
2022/09/16 03:13:36;;;;;;;;;1.75;1.75;;;;;;;;4922035;28;47129;-68
2022/09/16 03:16:08;;;;;;;;;1.75;1.75;;;;;;;;4921864;28;45383;-68
2022/09/16 03:18:36;;;;;;;;;2.75;1.75;;;;;;;;4921917;28;45320;-68
2022/09/16 03:21:31;;;;;;;;;3.00;1.25;;;;;;;;4925918;28;45443;-67
2022/09/16 03:24:02;;;;;;;;;1.50;1.50;;;;;;;;4863026;29;45488;-68
2022/09/16 03:26:27;;;;;;;;;1.00;1.00;;;;;;;;4863240;29;45428;-68
2022/09/16 03:29:22;;;;;;;;;3.00;1.75;;;;;;;;4863146;29;45347;-68
2022/09/16 03:32:06;;;;;;;;;3.00;1.75;;;;;;;;4850959;29;45963;-68
2022/09/16 03:34:37;;;;;;;;;2.00;0.50;;;;;;;;4862698;29;47017;-68
2022/09/16 03:37:05;;;;;;;;;1.50;0.75;;;;;;;;4862824;29;45405;-68
2022/09/16 03:39:32;;;;;;;;;3.50;1.75;;;;;;;;4862963;29;46357;-68
2022/09/16 03:42:04;;;;;;;;;1.50;1.50;;;;;;;;4862798;29;45540;-68
2022/09/16 03:44:30;;;;;;;;;12.00;8.00;;;;;;;;4862733;29;45437;-68
2022/09/16 03:46:56;;;;;;;;;1.75;1.75;;;;;;;;4862685;29;45462;-69
2022/09/16 03:49:21;;;;;;;;;3.50;2.00;;;;;;;;4851250;29;45548;-68
2022/09/16 03:51:46;;;;;;;;;1.25;1.25;;;;;;;;4844413;29;45491;-69
2022/09/16 03:54:12;;;;;;;;;1.75;1.25;;;;;;;;4843795;29;45572;-68
2022/09/16 03:56:37;;;;;;;;;1.00;1.00;;;;;;;;4844012;29;45492;-69
2022/09/16 03:59:02;;;;;;;;;1.25;1.25;;;;;;;;4844040;29;45568;-69
2022/09/16 04:01:27;;;;;;;;;1.50;1.50;;;;;;;;4900256;29;45397;-68
2022/09/16 04:03:53;;;;;;;;;0.50;0.50;;;;;;;;4902398;29;46410;-69
2022/09/16 04:06:18;;;;;;;;;0.75;0.75;;;;;;;;4901267;29;45460;-68
2022/09/16 04:08:44;;;;;;;;;2.75;2.25;;;;;;;;4902622;29;45298;-68
2022/09/16 04:11:09;;;;;;;;;2.50;2.50;;;;;;;;4902343;29;45549;-68
2022/09/16 04:13:35;;;;;;;;;2.75;1.00;;;;;;;;4885030;29;47162;-68
2022/09/16 04:16:00;;;;;;;;;1.00;1.00;;;;;;;;4902195;29;45673;-68
2022/09/16 04:18:26;;;;;;;;;2.75;1.50;;;;;;;;4902199;29;45294;-68
2022/09/16 04:20:58;;;;;;;;;3.00;2.50;;;;;;;;4902156;29;45171;-68
2022/09/16 04:23:27;;;;;;;;;4.33;2.67;;;;;;;;4901867;29;45448;-68
2022/09/16 04:25:55;;;;;;;;;9.00;8.33;;;;;;;;4901939;29;45275;-68
2022/09/16 04:28:21;;;;;;;;;2.00;1.50;;;;;;;;4902111;29;45456;-68
2022/09/16 04:30:46;;;;;;;;;3.00;2.00;;;;;;;;4907021;28;45421;-68
2022/09/16 04:33:11;;;;;;;;;1.00;0.00;;;;;;;;4920877;28;46613;-67
2022/09/16 04:35:36;;;;;;;;;3.75;2.50;;;;;;;;4921008;28;45223;-68
2022/09/16 04:38:02;;;;;;;;;3.25;1.50;;;;;;;;4920830;28;45353;-67
2022/09/16 04:40:27;;;;;;;;;1.50;1.50;;;;;;;;4921232;28;45360;-68
2022/09/16 04:42:52;;;;;;;;;3.00;3.00;;;;;;;;4920650;28;45314;-68
2022/09/16 04:45:18;;;;;;;;;5.00;3.25;;;;;;;;4920600;28;45418;-68
2022/09/16 04:47:43;;;;;;;;;3.25;2.00;;;;;;;;4920891;28;45379;-68
2022/09/16 04:50:09;;;;;;;;;5.00;2.25;;;;;;;;4919562;28;45420;-68
2022/09/16 04:52:35;;;;;;;;;2.50;2.50;;;;;;;;4909662;28;46165;-69
2022/09/16 04:55:00;;;;;;;;;1.50;1.25;;;;;;;;4903283;28;45497;-69
2022/09/16 04:57:28;;;;;;;;;3.50;3.25;;;;;;;;4920654;28;45273;-69
2022/09/16 04:59:53;;;;;;;;;3.75;3.75;;;;;;;;4897045;29;45416;-69
2022/09/16 05:02:19;;;;;;;;;2.75;2.75;;;;;;;;4914885;28;45640;-68
2022/09/16 05:04:44;;;;;;;;;2.50;2.25;;;;;;;;4920335;28;45322;-69
2022/09/16 05:07:09;;;;;;;;;2.75;2.75;;;;;;;;4920255;28;45230;-68
2022/09/16 05:09:36;;;;;;;;;2.00;0.75;;;;;;;;4920428;28;45809;-68
2022/09/16 05:12:01;;;;;;;;;3.00;3.00;;;;;;;;4910061;28;46304;-68
2022/09/16 05:14:26;;;;;;;;;4.00;3.25;;;;;;;;4901178;29;45443;-67
2022/09/16 05:16:52;;;;;;;;;4.00;2.00;;;;;;;;4901124;29;45254;-67
2022/09/16 05:19:18;;;;;;;;;4.00;2.50;;;;;;;;4899903;28;45882;-68
2022/09/16 05:21:43;;;;;;;;;3.75;2.75;;;;;;;;4900311;29;45663;-68
2022/09/16 05:24:10;;;;;;;;;7.00;6.00;;;;;;;;4902308;28;45562;-67
2022/09/16 05:26:37;;;;;;;;;9.00;7.33;;;;;;;;4919403;28;45309;-67
2022/09/16 05:29:07;;;;;;;;;5.00;5.00;;;;;;;;4919979;28;45257;-67
2022/09/16 05:31:36;;;;;;;;;10.67;10.67;;;;;;;;4919515;28;45450;-67
2022/09/16 05:34:03;;;;;;;;;3.25;3.25;;;;;;;;4919932;28;45531;-67
2022/09/16 05:36:29;;;;;;;;;4.75;4.75;;;;;;;;4919557;28;45447;-67
2022/09/16 05:38:55;;;;;;;;;3.67;3.00;;;;;;;;4919715;28;45617;-67
2022/09/16 05:41:20;;;;;;;;;4.00;4.00;;;;;;;;4918467;28;46161;-67
2022/09/16 05:43:46;;;;;;;;;4.33;4.00;;;;;;;;4919770;28;45277;-68
2022/09/16 05:46:16;;;;;;;;;4.25;2.00;;;;;;;;4919923;28;45459;-68
2022/09/16 05:48:42;;;;;;;;;3.00;3.00;;;;;;;;4919887;28;45378;-67
2022/09/16 05:51:07;;;;;;;;;6.00;6.00;;;;;;;;4919767;28;46162;-68
2022/09/16 05:53:33;;;;;;;;;2.75;2.25;;;;;;;;4919486;28;45381;-68
2022/09/16 05:55:59;;;;;;;;;4.25;4.25;;;;;;;;4919691;28;45260;-67
2022/09/16 05:58:25;;;;;;;;;4.75;4.50;;;;;;;;4919885;28;45696;-67
2022/09/16 06:00:50;;;;;;;;;3.75;3.75;;;;;;;;4919714;28;46617;-67
2022/09/16 06:03:15;;;;;;;;;3.50;3.50;;;;;;;;4919656;28;45282;-67
2022/09/16 06:05:41;;;;;;;;;2.25;2.25;;;;;;;;4919339;28;45341;-68
2022/09/16 06:08:06;;;;;;;;;5.75;2.00;;;;;;;;4919039;28;45486;-67
2022/09/16 06:10:35;;;;;;;;;3.00;2.00;;;;;;;;4919532;28;46276;-67
2022/09/16 06:13:01;;;;;;;;;3.00;3.00;;;;;;;;4918523;28;45431;-68
2022/09/16 06:15:26;;;;;;;;;2.50;2.50;;;;;;;;4918531;28;45287;-68
2022/09/16 06:17:51;;;;;;;;;6.50;4.25;;;;;;;;4918529;28;45493;-68
2022/09/16 06:20:16;;;;;;;;;3.25;2.75;;;;;;;;4919177;28;46636;-68
2022/09/16 06:22:41;;;;;;;;;8.33;6.67;;;;;;;;4901997;28;45449;-68
2022/09/16 06:25:07;;;;;;;;;4.33;3.00;;;;;;;;4900569;29;45396;-68
2022/09/16 06:27:32;;;;;;;;;5.00;3.00;;;;;;;;4900407;28;45190;-68
2022/09/16 06:29:57;;;;;;;;;2.50;2.50;;;;;;;;4901105;28;45472;-68
2022/09/16 06:32:23;;;;;;;;;5.00;3.00;;;;;;;;4902438;29;45203;-68
2022/09/16 06:34:49;;;;;;;;;8.33;7.67;;;;;;;;4903518;29;45250;-68
2022/09/16 06:37:14;;;;;;;;;5.67;5.00;;;;;;;;4903533;29;45321;-68
2022/09/16 06:39:39;;;;;;;;;1.50;1.50;;;;;;;;4903243;29;45485;-68
2022/09/16 06:42:08;;;;;;;;;3.25;1.50;;;;;;;;4903111;28;45311;-68
2022/09/16 06:44:33;;;;;;;;;0.50;0.50;;;;;;;;4903725;29;45397;-68
2022/09/16 06:46:58;;;;;;;;;3.75;2.00;;;;;;;;4903387;28;45390;-68
2022/09/16 06:49:24;;;;;;;;;2.50;0.50;;;;;;;;4902569;29;46729;-68
2022/09/16 06:51:50;;;;;;;;;2.50;1.25;;;;;;;;4903278;29;45364;-68
2022/09/16 06:54:15;;;;;;;;;1.00;1.00;;;;;;;;4903280;28;45875;-68
2022/09/16 06:56:41;;;;;;;;;2.25;1.50;;;;;;;;4903551;28;45358;-68
2022/09/16 06:59:06;;;;;;;;;6.00;3.25;;;;;;;;4902982;29;45511;-68
2022/09/16 07:01:32;;;;;;;;;4.00;4.00;;;;;;;;4903302;28;45358;-68
2022/09/16 07:03:58;;;;;;;;;7.00;2.25;;;;;;;;4903142;29;45314;-68
2022/09/16 07:06:24;;;;;;;;;5.00;1.50;;;;;;;;4901945;28;45382;-68
2022/09/16 07:08:49;;;;;;;;;3.33;3.33;;;;;;;;4902097;28;46615;-67
2022/09/16 07:11:16;;;;;;;;;3.00;3.00;;;;;;;;4902884;28;45425;-68
2022/09/16 07:13:41;;;;;;;;;1.25;1.25;;;;;;;;4902876;28;45353;-68
2022/09/16 07:16:08;;;;;;;;;2.75;2.75;;;;;;;;4902932;28;45595;-68
2022/09/16 07:18:33;;;;;;;;;3.00;2.75;;;;;;;;4902539;28;45482;-68
2022/09/16 07:20:59;;;;;;;;;2.25;2.25;;;;;;;;4902737;28;45322;-68
2022/09/16 07:23:25;;;;;;;;;1.75;1.75;;;;;;;;4901585;28;45371;-68
2022/09/16 07:25:58;;;;;;;;;3.00;1.50;;;;;;;;4903102;29;45308;-68
2022/09/16 07:28:23;;;;;;;;;5.33;3.00;;;;;;;;4902736;28;46454;-68
2022/09/16 07:30:48;;;;;;;;;4.00;3.67;;;;;;;;4902537;29;45408;-68
2022/09/16 07:33:13;;;;;;;;;3.00;2.00;;;;;;;;4902924;29;45383;-68
2022/09/16 07:35:39;;;;;;;;;2.25;2.25;;;;;;;;4902740;29;45350;-68
2022/09/16 07:38:04;;;;;;;;;4.00;1.00;;;;;;;;4901117;29;46038;-69
2022/09/16 07:40:29;;;;;;;;;0.00;0.00;;;;;;;;4902484;29;45522;-68
2022/09/16 07:42:54;;;;;;;;;1.00;1.00;;;;;;;;4900590;29;45895;-68
2022/09/16 07:45:19;;;;;;;;;1.50;1.00;;;;;;;;4902643;29;45453;-69
2022/09/16 07:47:47;;;;;;;;;2.00;1.00;;;;;;;;4902303;29;46385;-68
2022/09/16 07:50:12;;;;;;;;;1.25;1.00;;;;;;;;4902377;28;45257;-68
2022/09/16 07:52:38;;;;;;;;;3.00;2.00;;;;;;;;4902367;29;45206;-68
2022/09/16 07:55:03;;;;;;;;;2.50;1.50;;;;;;;;4901288;29;45558;-68
2022/09/16 07:57:28;;;;;;;;;1.50;1.50;;;;;;;;4902162;29;46528;-68
2022/09/16 07:59:53;;;;;;;;;3.33;3.33;;;;;;;;4902285;29;45264;-68
2022/09/16 08:02:19;;;;;;;;;3.50;2.75;;;;;;;;4902400;29;45338;-68
2022/09/16 08:04:44;;;;;;;;;2.00;1.00;;;;;;;;4902524;29;45317;-68
2022/09/16 08:07:09;;;;;;;;;1.00;1.00;;;;;;;;4901495;29;45496;-67
2022/09/16 08:09:36;;;;;;;;;4.75;1.25;;;;;;;;4902101;29;45466;-67
2022/09/16 08:12:03;;;;;;;;;16.67;16.00;;;;;;;;4901023;29;45265;-67
2022/09/16 08:14:28;;;;;;;;;3.00;3.00;;;;;;;;4902121;28;45478;-67
2022/09/16 08:16:53;;;;;;;;;2.75;2.50;;;;;;;;4901562;28;45461;-68
2022/09/16 08:19:19;;;;;;;;;5.00;4.33;;;;;;;;4901754;28;45785;-68
2022/09/16 08:21:44;;;;;;;;;5.00;3.33;;;;;;;;4911232;28;45351;-67
2022/09/16 08:24:10;;;;;;;;;2.50;1.75;;;;;;;;4921052;28;45399;-68
2022/09/16 08:26:35;;;;;;;;;1.50;0.00;;;;;;;;4920695;28;46257;-68
2022/09/16 08:29:01;;;;;;;;;1.50;1.00;;;;;;;;4913587;28;48713;-68
2022/09/16 08:31:26;;;;;;;;;1.00;0.50;;;;;;;;4901977;29;45370;-69
2022/09/16 08:33:52;;;;;;;;;0.75;0.75;;;;;;;;4902035;29;45325;-68
2022/09/16 08:36:21;;;;;;;;;2.25;1.00;;;;;;;;4901670;29;45529;-68
2022/09/16 08:38:48;;;;;;;;;0.00;0.00;;;;;;;;4901588;29;45362;-68
2022/09/16 08:41:32;;;;;;;;;2.00;0.75;;;;;;;;4901818;29;45419;-68
2022/09/16 08:44:03;;;;;;;;;0.75;0.75;;;;;;;;4901884;29;45316;-68
2022/09/16 08:46:33;;;;;;;;;1.00;0.00;;;;;;;;4900369;28;45468;-69
2022/09/16 08:49:17;;;;;;;;;0.00;0.00;;;;;;;;4901158;28;45494;-68
2022/09/16 08:51:42;;;;;;;;;0.00;0.00;;;;;;;;4901844;29;45227;-68
2022/09/16 08:54:22;;;;;;;;;1.00;0.00;;;;;;;;4901285;28;45456;-68
2022/09/16 08:56:48;;;;;;;;;0.00;0.00;;;;;;;;4901107;29;45449;-67
2022/09/16 08:59:16;;;;;;;;;0.00;0.00;;;;;;;;4901545;29;45240;-68
2022/09/16 09:01:50;;;;;;;;;0.00;0.00;;;;;;;;4900815;28;45334;-67
2022/09/16 09:04:16;;;;;;;;;0.00;0.00;;;;;;;;4901635;28;45220;-69
2022/09/16 09:06:47;;;;;;;;;1.25;0.00;;;;;;;;4901270;29;45564;-68
2022/09/16 09:09:26;;;;;;;;;0.00;0.00;;;;;;;;4901103;29;45457;-69
2022/09/16 09:12:06;;;;;;;;;0.00;0.00;;;;;;;;4901368;29;45260;-68
2022/09/16 09:14:43;;;;;;;;;2.00;0.75;;;;;;;;4901364;29;45445;-69
2022/09/16 09:17:18;;;;;;;;;1.00;0.25;;;;;;;;4900755;29;46316;-68
2022/09/16 09:19:49;;;;;;;;;0.00;0.00;;;;;;;;4900217;28;45451;-68
2022/09/16 09:22:17;;;;;;;;;2.50;0.00;;;;;;;;4900823;28;45415;-69
2022/09/16 09:24:51;;;;;;;;;0.25;0.00;;;;;;;;4900944;29;45265;-68
2022/09/16 09:27:25;;;;;;;;;4.00;2.67;;;;;;;;4900727;29;46433;-68
2022/09/16 09:29:58;;;;;;;;;2.00;0.00;;;;;;;;4900900;28;45414;-68
2022/09/16 09:32:23;;;;;;;;;0.00;0.00;;;;;;;;4900917;28;45377;-68
2022/09/16 09:34:58;;;;;;;;;0.00;0.00;;;;;;;;4901268;29;45388;-68
2022/09/16 09:37:42;;;;;;;;;1.67;1.67;;;;;;;;4899276;29;46742;-68
2022/09/16 09:40:09;;;;;;;;;1.75;0.00;;;;;;;;4900319;28;45308;-68
2022/09/16 09:42:38;;;;;;;;;1.00;0.00;;;;;;;;4900826;29;45308;-67
2022/09/16 09:45:11;;;;;;;;;1.00;1.00;;;;;;;;4900810;28;45283;-68
2022/09/16 09:47:40;;;;;;;;;1.50;1.00;;;;;;;;4900651;28;46410;-68
2022/09/16 09:50:18;;;;;;;;;0.00;0.00;;;;;;;;4899381;29;45394;-68
2022/09/16 09:52:53;;;;;;;;;0.00;0.00;;;;;;;;4899846;28;45370;-67
2022/09/16 09:55:19;;;;;;;;;0.00;0.00;;;;;;;;4881702;29;45637;-68
2022/09/16 09:58:04;;;;;;;;;2.00;0.00;;;;;;;;4881596;29;45483;-68
2022/09/16 10:00:29;;;;;;;;;0.50;0.00;;;;;;;;4881716;29;45413;-68
2022/09/16 10:03:02;;;;;;;;;0.00;0.00;;;;;;;;4881743;29;45266;-68
2022/09/16 10:05:28;;;;;;;;;0.75;0.00;;;;;;;;4883711;29;45449;-70
2022/09/16 10:08:03;;;;;;;;;0.00;0.00;;;;;;;;4884756;29;46745;-71
2022/09/16 10:10:31;;;;;;;;;0.00;0.00;;;;;;;;4900397;29;45365;-70
2022/09/16 10:13:05;;;;;;;;;0.00;0.00;;;;;;;;4904041;28;45369;-70
2022/09/16 10:15:30;;;;;;;;;0.00;0.00;;;;;;;;4904117;29;45273;-70
2022/09/16 10:17:58;;;;;;;;;0.00;0.00;;;;;;;;4903607;29;45450;-71
2022/09/16 10:20:34;;;;;;;;;0.00;0.00;;;;;;;;4903891;28;45440;-70
2022/09/16 10:23:10;;;;;;;;;2.00;0.00;;;;;;;;4904181;29;45462;-70
2022/09/16 10:25:36;;;;;;;;;0.00;0.00;;;;;;;;4902926;29;45520;-70
2022/09/16 10:28:16;;;;;;;;;0.50;0.00;;;;;;;;4903609;29;45544;-69
2022/09/16 10:30:44;;;;;;;;;1.00;0.00;;;;;;;;4903713;29;45441;-71
2022/09/16 10:33:16;;;;;;;;;0.00;0.00;;;;;;;;4903655;29;45319;-71
2022/09/16 10:35:49;;;;;;;;;0.00;0.00;;;;;;;;4903920;29;45364;-71
2022/09/16 10:38:18;;;;;;;;;0.00;0.00;;;;;;;;4903415;29;46797;-71
2022/09/16 10:40:50;;;;;;;;;0.00;0.00;;;;;;;;4903554;29;45379;-71
2022/09/16 10:43:16;;;;;;;;;0.00;0.00;;;;;;;;4902711;29;45308;-71
2022/09/16 10:45:45;;;;;;;;;0.00;0.00;;;;;;;;4903654;29;45297;-70
2022/09/16 10:48:13;;;;;;;;;0.00;0.00;;;;;;;;4903434;29;46262;-71
2022/09/16 10:50:38;;;;;;;;;1.00;0.00;;;;;;;;4903381;29;45368;-71
2022/09/16 10:53:19;;;;;;;;;0.00;0.00;;;;;;;;4903515;29;45333;-71
2022/09/16 10:55:54;;;;;;;;;1.00;1.00;;;;;;;;4903714;29;45483;-71
2022/09/16 10:58:20;;;;;;;;;1.50;0.25;;;;;;;;4902112;29;46781;-71
2022/09/16 11:01:08;;;;;;;;;0.00;0.00;;;;;;;;4903284;29;45366;-71
2022/09/16 11:03:52;;;;;;;;;4.00;1.00;;;;;;;;4826498;29;45436;-71
2022/09/16 11:06:32;;;;;;;;;0.00;0.00;;;;;;;;4826407;29;45480;-71
2022/09/16 11:09:00;;;;;;;;;0.00;0.00;;;;;;;;4826256;29;46725;-71
2022/09/16 11:11:44;;;;;;;;;0.00;0.00;;;;;;;;4826004;29;45595;-70
2022/09/16 11:14:14;;;;;;;;;0.00;0.00;;;;;;;;4825427;29;45515;-71
2022/09/16 11:16:48;;;;;;;;;0.25;0.25;;;;;;;;4807863;29;45503;-71
2022/09/16 11:19:25;;;;;;;;;0.00;0.00;;;;;;;;4807820;29;46602;-69
2022/09/16 11:22:00;;;;;;;;;0.00;0.00;;;;;;;;4817226;29;45479;-69
2022/09/16 11:24:28;;;;;;;;;0.00;0.00;;;;;;;;4826165;29;45516;-69
2022/09/16 11:26:53;;;;;;;;;0.00;0.00;;;;;;;;4826178;29;45347;-69
2022/09/16 11:29:28;;;;;;;;;2.00;1.00;;;;;;;;4826041;29;46172;-72
2022/09/16 11:32:25;;;;;;;;;0.00;0.00;;;;;;;;4825914;29;45408;-69
2022/09/16 11:34:59;;;;;;;;;7.00;5.67;;;;;;;;4789289;29;45443;-68
2022/09/16 11:37:28;;;;;;;;;1.50;0.00;;;;;;;;4785716;29;45532;-69
2022/09/16 11:39:59;;;;;;;;;0.00;0.00;;;;;;;;4809385;29;45482;-68
2022/09/16 11:42:24;;;;;;;;;0.00;0.00;;;;;;;;4843510;29;45456;-70
2022/09/16 11:44:58;;;;;;;;;1.00;1.00;;;;;;;;4843459;29;45788;-68
2022/09/16 11:47:42;;;;;;;;;0.50;0.00;;;;;;;;4830828;29;45470;-67
2022/09/16 11:50:07;;;;;;;;;1.00;0.00;;;;;;;;4823734;29;45487;-68
2022/09/16 11:52:38;;;;;;;;;1.00;1.00;;;;;;;;4824745;29;45630;-68
2022/09/16 11:55:13;;;;;;;;;0.00;0.00;;;;;;;;4824753;29;45612;-69
2022/09/16 11:57:40;;;;;;;;;1.00;0.00;;;;;;;;4824768;29;45482;-69
2022/09/16 12:00:09;;;;;;;;;2.00;0.50;;;;;;;;4824689;29;46530;-68
2022/09/16 12:02:53;;;;;;;;;0.00;0.00;;;;;;;;4824446;29;45433;-67
2022/09/16 12:05:20;;;;;;;;;0.00;0.00;;;;;;;;4823675;29;45953;-68
2022/09/16 12:08:04;;;;;;;;;0.00;0.00;;;;;;;;4824976;29;45432;-67
2022/09/16 12:10:32;;;;;;;;;0.00;0.00;;;;;;;;4854177;29;46344;-67
2022/09/16 12:13:02;;;;;;;;;0.00;0.00;;;;;;;;4882447;29;45428;-68
2022/09/16 12:15:38;;;;;;;;;0.75;0.00;;;;;;;;4882465;29;45353;-69
2022/09/16 12:18:09;;;;;;;;;0.00;0.00;;;;;;;;4865884;29;45488;-68
2022/09/16 12:20:39;;;;;;;;;2.00;0.00;;;;;;;;4887393;28;46450;-68
2022/09/16 12:23:10;;;;;;;;;1.00;1.00;;;;;;;;4920324;28;45397;-68
2022/09/16 12:25:58;;;;;;;;;0.00;0.00;;;;;;;;4920402;28;45440;-69
2022/09/16 12:28:28;;;;;;;;;0.00;0.00;;;;;;;;4842550;29;45511;-69
2022/09/16 12:31:02;;;;;;;;;4.33;4.33;;;;;;;;4842525;29;46577;-69
2022/09/16 12:33:32;;;;;;;;;5.25;1.75;;;;;;;;4842383;29;45457;-68
2022/09/16 12:36:05;;;;;;;;;1.00;1.00;;;;;;;;4842705;29;45566;-68
2022/09/16 12:38:31;;;;;;;;;0.00;0.00;;;;;;;;4841576;29;45619;-68
2022/09/16 12:40:56;;;;;;;;;1.00;1.00;;;;;;;;4840607;29;45992;-68
2022/09/16 12:43:38;;;;;;;;;1.25;1.25;;;;;;;;4842400;29;45338;-68
2022/09/16 12:46:20;;;;;;;;;2.00;0.00;;;;;;;;4842125;29;45406;-68
2022/09/16 12:48:45;;;;;;;;;2.00;2.00;;;;;;;;4842647;29;45600;-68
2022/09/16 12:51:16;;;;;;;;;0.75;0.75;;;;;;;;4841759;29;46283;-66
2022/09/16 12:53:59;;;;;;;;;3.00;2.00;;;;;;;;4842165;29;45446;-66
2022/09/16 12:56:31;;;;;;;;;0.00;0.00;;;;;;;;4842115;29;45549;-66
2022/09/16 12:58:56;;;;;;;;;4.00;3.00;;;;;;;;4842211;29;45447;-66
2022/09/16 13:01:34;;;;;;;;;0.67;0.67;;;;;;;;4842022;29;45530;-66
2022/09/16 13:04:07;;;;;;;;;0.25;0.25;;;;;;;;4842289;29;45523;-66
2022/09/16 13:06:34;;;;;;;;;1.00;1.00;;;;;;;;4898732;28;45458;-66
2022/09/16 13:09:14;;;;;;;;;3.67;1.33;;;;;;;;4901402;28;45504;-66
2022/09/16 13:11:39;;;;;;;;;1.25;1.00;;;;;;;;4917166;28;46739;-66
2022/09/16 13:14:05;;;;;;;;;3.33;2.67;;;;;;;;4919295;28;45332;-66
2022/09/16 13:16:35;;;;;;;;;1.00;1.00;;;;;;;;4919177;28;45530;-65
2022/09/16 13:19:09;;;;;;;;;2.00;0.00;;;;;;;;4919599;28;45441;-65
2022/09/16 13:21:45;;;;;;;;;0.00;0.00;;;;;;;;4901272;28;47356;-66
2022/09/16 13:24:24;;;;;;;;;4.25;0.00;;;;;;;;4919139;28;45454;-66
2022/09/16 13:26:50;;;;;;;;;0.00;0.00;;;;;;;;4918905;28;45419;-66
2022/09/16 13:29:34;;;;;;;;;3.00;3.00;;;;;;;;4919397;28;45367;-66
2022/09/16 13:31:59;;;;;;;;;3.00;1.00;;;;;;;;4918957;28;46258;-66
2022/09/16 13:34:25;;;;;;;;;3.33;3.00;;;;;;;;4918763;28;45461;-65
2022/09/16 13:36:50;;;;;;;;;0.00;0.00;;;;;;;;4918760;28;45408;-66
2022/09/16 13:39:27;;;;;;;;;4.33;4.00;;;;;;;;4917776;28;45356;-66
2022/09/16 13:41:52;;;;;;;;;2.00;2.00;;;;;;;;4918564;28;46178;-66
2022/09/16 13:44:36;;;;;;;;;2.00;0.33;;;;;;;;4918754;28;45631;-66
2022/09/16 13:47:10;;;;;;;;;5.67;5.67;;;;;;;;4918837;28;45427;-66
2022/09/16 13:49:56;;;;;;;;;6.00;4.33;;;;;;;;4919385;28;45781;-66
2022/09/16 13:52:24;;;;;;;;;4.00;1.00;;;;;;;;4918341;28;46219;-66
2022/09/16 13:54:51;;;;;;;;;1.00;1.00;;;;;;;;4918809;28;45494;-66
2022/09/16 13:57:16;;;;;;;;;5.00;3.33;;;;;;;;4918699;28;45396;-66
2022/09/16 14:00:03;;;;;;;;;5.00;3.67;;;;;;;;4919389;28;45479;-66
2022/09/16 14:02:47;;;;;;;;;7.67;7.00;;;;;;;;4899924;29;45528;-66
2022/09/16 14:05:18;;;;;;;;;3.00;2.00;;;;;;;;4899856;29;45411;-67
2022/09/16 14:08:00;;;;;;;;;2.00;2.00;;;;;;;;4899939;29;45488;-67
2022/09/16 14:10:42;;;;;;;;;2.50;1.00;;;;;;;;4899798;29;45425;-67
2022/09/16 14:13:15;;;;;;;;;0.00;0.00;;;;;;;;4905730;28;45524;-66
2022/09/16 14:15:43;;;;;;;;;0.50;0.00;;;;;;;;4919655;28;45449;-68
2022/09/16 14:18:11;;;;;;;;;0.67;0.00;;;;;;;;4919517;28;45366;-68
2022/09/16 14:20:36;;;;;;;;;0.50;0.00;;;;;;;;4919620;28;45748;-68
2022/09/16 14:23:03;;;;;;;;;0.00;0.00;;;;;;;;4919346;28;45479;-69
2022/09/16 14:25:30;;;;;;;;;1.00;0.00;;;;;;;;4919466;28;45327;-69
2022/09/16 14:28:25;;;;;;;;;0.00;0.00;;;;;;;;4919224;28;45342;-67
2022/09/16 14:30:53;;;;;;;;;0.00;0.00;;;;;;;;4822286;29;45436;-67
2022/09/16 14:33:21;;;;;;;;;0.00;0.00;;;;;;;;4823405;29;46240;-67
2022/09/16 14:35:47;;;;;;;;;0.00;0.00;;;;;;;;4823506;29;45457;-68
2022/09/16 14:38:14;;;;;;;;;0.00;0.00;;;;;;;;4822518;29;45526;-68
2022/09/16 14:40:40;;;;;;;;;2.00;0.00;;;;;;;;4823360;29;45431;-70
2022/09/16 14:43:06;;;;;;;;;0.00;0.00;;;;;;;;4822736;29;46221;-69
2022/09/16 14:45:34;;;;;;;;;0.50;0.00;;;;;;;;4823194;29;45481;-70
2022/09/16 14:48:00;;;;;;;;;0.00;0.00;;;;;;;;4821095;29;45582;-70
2022/09/16 14:50:35;;;;;;;;;0.00;0.00;;;;;;;;4823538;29;45525;-70
2022/09/16 14:53:01;;;;;;;;;0.00;0.00;;;;;;;;4826261;29;45433;-70
2022/09/16 14:55:28;;;;;;;;;0.00;0.00;;;;;;;;4826232;29;45369;-70
2022/09/16 14:57:54;;;;;;;;;0.00;0.00;;;;;;;;4810724;29;45569;-69